sensor_id;sensor_type;location;lat;lon;timestamp;P1;durP1;ratioP1;P2;durP2;ratioP2
66189;SDS011;52992;52.084;5.412;2023-11-22T00:00:29;18.37;;;9.87;;
66189;SDS011;52992;52.084;5.412;2023-11-22T00:02:57;16.27;;;8.77;;
66189;SDS011;52992;52.084;5.412;2023-11-22T00:05:24;14.33;;;8.87;;
66189;SDS011;52992;52.084;5.412;2023-11-22T00:07:51;21.90;;;9.77;;
66189;SDS011;52992;52.084;5.412;2023-11-22T00:10:18;16.47;;;9.90;;
66189;SDS011;52992;52.084;5.412;2023-11-22T00:12:45;16.20;;;9.40;;
66189;SDS011;52992;52.084;5.412;2023-11-22T00:15:12;19.73;;;8.93;;
66189;SDS011;52992;52.084;5.412;2023-11-22T00:17:39;16.53;;;9.43;;
66189;SDS011;52992;52.084;5.412;2023-11-22T00:20:06;16.07;;;9.03;;
66189;SDS011;52992;52.084;5.412;2023-11-22T00:22:34;16.40;;;9.10;;
66189;SDS011;52992;52.084;5.412;2023-11-22T00:25:01;16.90;;;9.63;;
66189;SDS011;52992;52.084;5.412;2023-11-22T00:27:30;18.07;;;9.10;;
66189;SDS011;52992;52.084;5.412;2023-11-22T00:30:00;15.50;;;9.03;;
66189;SDS011;52992;52.084;5.412;2023-11-22T00:32:26;17.10;;;9.23;;
66189;SDS011;52992;52.084;5.412;2023-11-22T00:34:53;21.07;;;9.50;;
66189;SDS011;52992;52.084;5.412;2023-11-22T00:37:20;16.23;;;9.33;;
66189;SDS011;52992;52.084;5.412;2023-11-22T00:39:47;17.97;;;9.73;;
66189;SDS011;52992;52.084;5.412;2023-11-22T00:42:14;15.23;;;8.27;;
66189;SDS011;52992;52.084;5.412;2023-11-22T00:44:41;15.70;;;8.50;;
66189;SDS011;52992;52.084;5.412;2023-11-22T00:47:08;18.20;;;8.27;;
66189;SDS011;52992;52.084;5.412;2023-11-22T00:49:35;14.10;;;8.70;;
66189;SDS011;52992;52.084;5.412;2023-11-22T00:52:02;16.13;;;8.60;;
66189;SDS011;52992;52.084;5.412;2023-11-22T00:54:29;14.90;;;8.63;;
66189;SDS011;52992;52.084;5.412;2023-11-22T00:56:56;18.27;;;9.60;;
66189;SDS011;52992;52.084;5.412;2023-11-22T00:59:23;15.93;;;9.13;;
66189;SDS011;52992;52.084;5.412;2023-11-22T01:01:50;19.20;;;9.00;;
66189;SDS011;52992;52.084;5.412;2023-11-22T01:04:17;16.57;;;9.13;;
66189;SDS011;52992;52.084;5.412;2023-11-22T01:06:44;14.07;;;8.80;;
66189;SDS011;52992;52.084;5.412;2023-11-22T01:09:11;14.83;;;7.97;;
66189;SDS011;52992;52.084;5.412;2023-11-22T01:11:40;20.67;;;9.27;;
66189;SDS011;52992;52.084;5.412;2023-11-22T01:14:09;14.83;;;9.17;;
66189;SDS011;52992;52.084;5.412;2023-11-22T01:16:36;18.43;;;10.00;;
66189;SDS011;52992;52.084;5.412;2023-11-22T01:19:03;17.83;;;9.23;;
66189;SDS011;52992;52.084;5.412;2023-11-22T01:21:30;21.30;;;9.23;;
66189;SDS011;52992;52.084;5.412;2023-11-22T01:23:57;13.03;;;7.37;;
66189;SDS011;52992;52.084;5.412;2023-11-22T01:26:25;15.33;;;8.67;;
66189;SDS011;52992;52.084;5.412;2023-11-22T01:28:52;17.17;;;8.50;;
66189;SDS011;52992;52.084;5.412;2023-11-22T01:31:19;15.27;;;9.00;;
66189;SDS011;52992;52.084;5.412;2023-11-22T01:33:49;14.53;;;8.03;;
66189;SDS011;52992;52.084;5.412;2023-11-22T01:36:16;17.13;;;8.50;;
66189;SDS011;52992;52.084;5.412;2023-11-22T01:38:43;18.33;;;9.10;;
66189;SDS011;52992;52.084;5.412;2023-11-22T01:41:11;18.23;;;8.57;;
66189;SDS011;52992;52.084;5.412;2023-11-22T01:43:39;13.20;;;8.10;;
66189;SDS011;52992;52.084;5.412;2023-11-22T01:46:08;19.80;;;9.90;;
66189;SDS011;52992;52.084;5.412;2023-11-22T01:48:37;18.00;;;9.33;;
66189;SDS011;52992;52.084;5.412;2023-11-22T01:51:04;13.67;;;8.30;;
66189;SDS011;52992;52.084;5.412;2023-11-22T01:53:31;13.40;;;7.90;;
66189;SDS011;52992;52.084;5.412;2023-11-22T01:56:00;13.93;;;8.03;;
66189;SDS011;52992;52.084;5.412;2023-11-22T01:58:28;15.33;;;7.70;;
66189;SDS011;52992;52.084;5.412;2023-11-22T02:00:55;14.67;;;8.70;;
66189;SDS011;52992;52.084;5.412;2023-11-22T02:03:25;12.60;;;8.03;;
66189;SDS011;52992;52.084;5.412;2023-11-22T02:05:52;15.13;;;8.63;;
66189;SDS011;52992;52.084;5.412;2023-11-22T02:08:21;12.73;;;8.40;;
66189;SDS011;52992;52.084;5.412;2023-11-22T02:11:01;15.13;;;8.63;;
66189;SDS011;52992;52.084;5.412;2023-11-22T02:13:31;14.57;;;8.23;;
66189;SDS011;52992;52.084;5.412;2023-11-22T02:15:59;18.90;;;9.70;;
66189;SDS011;52992;52.084;5.412;2023-11-22T02:18:28;14.50;;;8.60;;
66189;SDS011;52992;52.084;5.412;2023-11-22T02:20:56;19.23;;;9.33;;
66189;SDS011;52992;52.084;5.412;2023-11-22T02:23:23;17.97;;;9.17;;
66189;SDS011;52992;52.084;5.412;2023-11-22T02:25:50;15.23;;;8.70;;
66189;SDS011;52992;52.084;5.412;2023-11-22T02:28:17;17.47;;;9.07;;
66189;SDS011;52992;52.084;5.412;2023-11-22T02:30:44;14.63;;;8.20;;
66189;SDS011;52992;52.084;5.412;2023-11-22T02:33:11;13.80;;;8.50;;
66189;SDS011;52992;52.084;5.412;2023-11-22T02:35:38;17.80;;;8.27;;
66189;SDS011;52992;52.084;5.412;2023-11-22T02:38:05;18.77;;;8.87;;
66189;SDS011;52992;52.084;5.412;2023-11-22T02:40:32;15.43;;;8.70;;
66189;SDS011;52992;52.084;5.412;2023-11-22T02:42:59;13.47;;;7.87;;
66189;SDS011;52992;52.084;5.412;2023-11-22T02:45:31;16.43;;;7.90;;
66189;SDS011;52992;52.084;5.412;2023-11-22T02:47:58;12.43;;;7.60;;
66189;SDS011;52992;52.084;5.412;2023-11-22T02:50:28;15.23;;;7.70;;
66189;SDS011;52992;52.084;5.412;2023-11-22T02:52:55;11.13;;;6.83;;
66189;SDS011;52992;52.084;5.412;2023-11-22T02:55:22;11.53;;;7.63;;
66189;SDS011;52992;52.084;5.412;2023-11-22T02:57:50;14.40;;;7.83;;
66189;SDS011;52992;52.084;5.412;2023-11-22T03:00:17;12.03;;;6.97;;
66189;SDS011;52992;52.084;5.412;2023-11-22T03:02:45;14.97;;;7.63;;
66189;SDS011;52992;52.084;5.412;2023-11-22T03:05:13;16.17;;;7.40;;
66189;SDS011;52992;52.084;5.412;2023-11-22T03:07:43;12.23;;;6.60;;
66189;SDS011;52992;52.084;5.412;2023-11-22T03:10:11;12.03;;;7.37;;
66189;SDS011;52992;52.084;5.412;2023-11-22T03:12:39;12.70;;;7.00;;
66189;SDS011;52992;52.084;5.412;2023-11-22T03:15:06;12.47;;;6.93;;
66189;SDS011;52992;52.084;5.412;2023-11-22T03:17:33;13.63;;;7.70;;
66189;SDS011;52992;52.084;5.412;2023-11-22T03:20:00;12.63;;;7.57;;
66189;SDS011;52992;52.084;5.412;2023-11-22T03:22:27;14.77;;;7.67;;
66189;SDS011;52992;52.084;5.412;2023-11-22T03:25:00;14.53;;;7.97;;
66189;SDS011;52992;52.084;5.412;2023-11-22T03:27:28;14.27;;;8.00;;
66189;SDS011;52992;52.084;5.412;2023-11-22T03:29:55;16.70;;;8.60;;
66189;SDS011;52992;52.084;5.412;2023-11-22T03:32:22;17.00;;;8.73;;
66189;SDS011;52992;52.084;5.412;2023-11-22T03:34:49;17.07;;;9.03;;
66189;SDS011;52992;52.084;5.412;2023-11-22T03:37:17;15.87;;;7.80;;
66189;SDS011;52992;52.084;5.412;2023-11-22T03:39:44;16.93;;;7.87;;
66189;SDS011;52992;52.084;5.412;2023-11-22T03:42:15;14.30;;;7.63;;
66189;SDS011;52992;52.084;5.412;2023-11-22T03:44:44;12.83;;;7.60;;
66189;SDS011;52992;52.084;5.412;2023-11-22T03:47:11;11.00;;;7.00;;
66189;SDS011;52992;52.084;5.412;2023-11-22T03:49:41;10.23;;;6.57;;
66189;SDS011;52992;52.084;5.412;2023-11-22T03:52:12;15.23;;;7.53;;
66189;SDS011;52992;52.084;5.412;2023-11-22T03:54:40;11.73;;;7.03;;
66189;SDS011;52992;52.084;5.412;2023-11-22T03:57:07;11.33;;;6.87;;
66189;SDS011;52992;52.084;5.412;2023-11-22T03:59:34;13.37;;;6.90;;
66189;SDS011;52992;52.084;5.412;2023-11-22T04:02:02;11.87;;;6.70;;
66189;SDS011;52992;52.084;5.412;2023-11-22T04:04:29;11.97;;;6.50;;
66189;SDS011;52992;52.084;5.412;2023-11-22T04:06:56;11.60;;;7.03;;
66189;SDS011;52992;52.084;5.412;2023-11-22T04:09:23;12.70;;;6.53;;
66189;SDS011;52992;52.084;5.412;2023-11-22T04:11:50;10.90;;;6.27;;
66189;SDS011;52992;52.084;5.412;2023-11-22T04:14:18;13.60;;;6.67;;
66189;SDS011;52992;52.084;5.412;2023-11-22T04:16:47;12.77;;;7.20;;
66189;SDS011;52992;52.084;5.412;2023-11-22T04:19:14;11.10;;;6.93;;
66189;SDS011;52992;52.084;5.412;2023-11-22T04:21:42;16.33;;;6.90;;
66189;SDS011;52992;52.084;5.412;2023-11-22T04:24:09;11.47;;;7.00;;
66189;SDS011;52992;52.084;5.412;2023-11-22T04:26:35;13.07;;;7.43;;
66189;SDS011;52992;52.084;5.412;2023-11-22T04:29:03;11.87;;;6.87;;
66189;SDS011;52992;52.084;5.412;2023-11-22T04:31:30;12.67;;;7.80;;
66189;SDS011;52992;52.084;5.412;2023-11-22T04:33:57;14.53;;;7.53;;
66189;SDS011;52992;52.084;5.412;2023-11-22T04:36:26;19.40;;;8.03;;
66189;SDS011;52992;52.084;5.412;2023-11-22T04:38:53;13.87;;;8.03;;
66189;SDS011;52992;52.084;5.412;2023-11-22T04:41:20;14.57;;;8.57;;
66189;SDS011;52992;52.084;5.412;2023-11-22T04:43:47;13.30;;;8.07;;
66189;SDS011;52992;52.084;5.412;2023-11-22T04:46:14;14.97;;;7.53;;
66189;SDS011;52992;52.084;5.412;2023-11-22T04:48:41;15.97;;;8.00;;
66189;SDS011;52992;52.084;5.412;2023-11-22T04:51:11;14.57;;;7.37;;
66189;SDS011;52992;52.084;5.412;2023-11-22T04:53:38;14.00;;;8.30;;
66189;SDS011;52992;52.084;5.412;2023-11-22T04:56:05;14.67;;;7.73;;
66189;SDS011;52992;52.084;5.412;2023-11-22T04:58:32;15.43;;;7.83;;
66189;SDS011;52992;52.084;5.412;2023-11-22T05:01:00;14.80;;;7.77;;
66189;SDS011;52992;52.084;5.412;2023-11-22T05:03:28;17.10;;;7.73;;
66189;SDS011;52992;52.084;5.412;2023-11-22T05:05:55;13.93;;;7.70;;
66189;SDS011;52992;52.084;5.412;2023-11-22T05:08:22;13.33;;;7.87;;
66189;SDS011;52992;52.084;5.412;2023-11-22T05:10:49;13.33;;;7.27;;
66189;SDS011;52992;52.084;5.412;2023-11-22T05:13:18;14.60;;;7.97;;
66189;SDS011;52992;52.084;5.412;2023-11-22T05:15:45;12.97;;;7.43;;
66189;SDS011;52992;52.084;5.412;2023-11-22T05:18:11;11.17;;;6.93;;
66189;SDS011;52992;52.084;5.412;2023-11-22T05:20:38;13.43;;;7.53;;
66189;SDS011;52992;52.084;5.412;2023-11-22T05:23:05;13.03;;;6.50;;
66189;SDS011;52992;52.084;5.412;2023-11-22T05:25:32;15.20;;;7.77;;
66189;SDS011;52992;52.084;5.412;2023-11-22T05:27:59;14.10;;;7.70;;
66189;SDS011;52992;52.084;5.412;2023-11-22T05:30:26;15.53;;;8.93;;
66189;SDS011;52992;52.084;5.412;2023-11-22T05:32:53;14.43;;;7.87;;
66189;SDS011;52992;52.084;5.412;2023-11-22T05:35:20;14.57;;;7.60;;
66189;SDS011;52992;52.084;5.412;2023-11-22T05:37:47;16.70;;;8.70;;
66189;SDS011;52992;52.084;5.412;2023-11-22T05:40:14;16.23;;;8.10;;
66189;SDS011;52992;52.084;5.412;2023-11-22T05:42:42;16.90;;;8.43;;
66189;SDS011;52992;52.084;5.412;2023-11-22T05:45:09;15.87;;;8.57;;
66189;SDS011;52992;52.084;5.412;2023-11-22T05:47:36;15.57;;;8.87;;
66189;SDS011;52992;52.084;5.412;2023-11-22T05:50:04;15.17;;;7.93;;
66189;SDS011;52992;52.084;5.412;2023-11-22T05:52:32;16.00;;;7.97;;
66189;SDS011;52992;52.084;5.412;2023-11-22T05:54:59;15.67;;;7.70;;
66189;SDS011;52992;52.084;5.412;2023-11-22T05:57:30;14.63;;;7.90;;
66189;SDS011;52992;52.084;5.412;2023-11-22T05:59:57;19.80;;;9.23;;
66189;SDS011;52992;52.084;5.412;2023-11-22T06:02:24;16.93;;;8.67;;
66189;SDS011;52992;52.084;5.412;2023-11-22T06:04:51;16.83;;;8.77;;
66189;SDS011;52992;52.084;5.412;2023-11-22T06:07:18;13.40;;;7.73;;
66189;SDS011;52992;52.084;5.412;2023-11-22T06:09:45;19.13;;;9.10;;
66189;SDS011;52992;52.084;5.412;2023-11-22T06:12:12;24.20;;;9.00;;
66189;SDS011;52992;52.084;5.412;2023-11-22T06:14:39;15.80;;;8.80;;
66189;SDS011;52992;52.084;5.412;2023-11-22T06:17:06;17.40;;;10.43;;
66189;SDS011;52992;52.084;5.412;2023-11-22T06:19:33;18.57;;;11.00;;
66189;SDS011;52992;52.084;5.412;2023-11-22T06:22:00;21.87;;;12.90;;
66189;SDS011;52992;52.084;5.412;2023-11-22T06:24:28;24.33;;;13.03;;
66189;SDS011;52992;52.084;5.412;2023-11-22T06:26:54;26.60;;;12.70;;
66189;SDS011;52992;52.084;5.412;2023-11-22T06:29:21;22.77;;;12.30;;
66189;SDS011;52992;52.084;5.412;2023-11-22T06:31:48;19.63;;;11.00;;
66189;SDS011;52992;52.084;5.412;2023-11-22T06:34:15;18.83;;;10.07;;
66189;SDS011;52992;52.084;5.412;2023-11-22T06:36:43;17.33;;;10.20;;
66189;SDS011;52992;52.084;5.412;2023-11-22T06:39:10;17.53;;;9.57;;
66189;SDS011;52992;52.084;5.412;2023-11-22T06:41:42;14.47;;;8.23;;
66189;SDS011;52992;52.084;5.412;2023-11-22T06:44:09;15.50;;;8.83;;
66189;SDS011;52992;52.084;5.412;2023-11-22T06:46:36;16.57;;;8.83;;
66189;SDS011;52992;52.084;5.412;2023-11-22T06:49:03;19.33;;;9.93;;
66189;SDS011;52992;52.084;5.412;2023-11-22T06:51:31;15.40;;;9.03;;
66189;SDS011;52992;52.084;5.412;2023-11-22T06:53:58;17.83;;;9.23;;
66189;SDS011;52992;52.084;5.412;2023-11-22T06:56:27;17.53;;;8.80;;
66189;SDS011;52992;52.084;5.412;2023-11-22T06:58:54;15.23;;;8.43;;
66189;SDS011;52992;52.084;5.412;2023-11-22T07:01:23;19.73;;;8.40;;
66189;SDS011;52992;52.084;5.412;2023-11-22T07:03:53;18.80;;;9.83;;
66189;SDS011;52992;52.084;5.412;2023-11-22T07:06:21;22.93;;;12.07;;
66189;SDS011;52992;52.084;5.412;2023-11-22T07:08:49;26.30;;;13.73;;
66189;SDS011;52992;52.084;5.412;2023-11-22T07:11:22;25.07;;;14.50;;
66189;SDS011;52992;52.084;5.412;2023-11-22T07:13:50;25.20;;;13.50;;
66189;SDS011;52992;52.084;5.412;2023-11-22T07:16:18;22.00;;;12.63;;
66189;SDS011;52992;52.084;5.412;2023-11-22T07:18:47;22.53;;;13.60;;
66189;SDS011;52992;52.084;5.412;2023-11-22T07:21:14;23.63;;;13.20;;
66189;SDS011;52992;52.084;5.412;2023-11-22T07:23:41;23.93;;;12.87;;
66189;SDS011;52992;52.084;5.412;2023-11-22T07:26:08;25.87;;;12.60;;
66189;SDS011;52992;52.084;5.412;2023-11-22T07:28:35;26.67;;;12.67;;
66189;SDS011;52992;52.084;5.412;2023-11-22T07:31:02;24.77;;;11.37;;
66189;SDS011;52992;52.084;5.412;2023-11-22T07:33:32;22.03;;;10.77;;
66189;SDS011;52992;52.084;5.412;2023-11-22T07:35:59;21.57;;;10.70;;
66189;SDS011;52992;52.084;5.412;2023-11-22T07:38:26;20.33;;;11.03;;
66189;SDS011;52992;52.084;5.412;2023-11-22T07:40:53;23.70;;;11.23;;
66189;SDS011;52992;52.084;5.412;2023-11-22T07:43:20;22.77;;;11.20;;
66189;SDS011;52992;52.084;5.412;2023-11-22T07:45:47;34.57;;;12.33;;
66189;SDS011;52992;52.084;5.412;2023-11-22T07:48:15;21.73;;;11.27;;
66189;SDS011;52992;52.084;5.412;2023-11-22T07:50:42;21.37;;;11.90;;
66189;SDS011;52992;52.084;5.412;2023-11-22T07:53:15;21.93;;;11.03;;
66189;SDS011;52992;52.084;5.412;2023-11-22T07:55:44;23.63;;;11.33;;
66189;SDS011;52992;52.084;5.412;2023-11-22T07:58:11;23.27;;;11.13;;
66189;SDS011;52992;52.084;5.412;2023-11-22T08:00:37;23.33;;;11.33;;
66189;SDS011;52992;52.084;5.412;2023-11-22T08:03:04;22.80;;;11.73;;
66189;SDS011;52992;52.084;5.412;2023-11-22T08:05:33;24.43;;;10.93;;
66189;SDS011;52992;52.084;5.412;2023-11-22T08:08:03;22.77;;;11.83;;
66189;SDS011;52992;52.084;5.412;2023-11-22T08:10:35;24.37;;;12.33;;
66189;SDS011;52992;52.084;5.412;2023-11-22T08:13:02;22.13;;;11.80;;
66189;SDS011;52992;52.084;5.412;2023-11-22T08:15:30;23.20;;;11.20;;
66189;SDS011;52992;52.084;5.412;2023-11-22T08:17:58;24.70;;;11.60;;
66189;SDS011;52992;52.084;5.412;2023-11-22T08:20:27;23.57;;;11.17;;
66189;SDS011;52992;52.084;5.412;2023-11-22T08:22:54;19.83;;;10.97;;
66189;SDS011;52992;52.084;5.412;2023-11-22T08:25:21;22.47;;;10.97;;
66189;SDS011;52992;52.084;5.412;2023-11-22T08:27:48;23.03;;;11.60;;
66189;SDS011;52992;52.084;5.412;2023-11-22T08:30:15;26.13;;;13.13;;
66189;SDS011;52992;52.084;5.412;2023-11-22T08:32:45;25.53;;;12.20;;
66189;SDS011;52992;52.084;5.412;2023-11-22T08:35:17;27.50;;;13.20;;
66189;SDS011;52992;52.084;5.412;2023-11-22T08:37:44;29.70;;;14.67;;
66189;SDS011;52992;52.084;5.412;2023-11-22T08:40:13;25.80;;;13.77;;
66189;SDS011;52992;52.084;5.412;2023-11-22T08:42:41;29.53;;;15.50;;
66189;SDS011;52992;52.084;5.412;2023-11-22T08:45:08;25.87;;;13.80;;
66189;SDS011;52992;52.084;5.412;2023-11-22T08:47:35;27.00;;;13.83;;
66189;SDS011;52992;52.084;5.412;2023-11-22T08:50:03;26.97;;;13.73;;
66189;SDS011;52992;52.084;5.412;2023-11-22T08:52:31;27.20;;;13.93;;
66189;SDS011;52992;52.084;5.412;2023-11-22T08:54:58;30.50;;;15.03;;
66189;SDS011;52992;52.084;5.412;2023-11-22T08:57:27;33.33;;;15.43;;
66189;SDS011;52992;52.084;5.412;2023-11-22T08:59:53;27.10;;;14.50;;
66189;SDS011;52992;52.084;5.412;2023-11-22T09:02:21;27.57;;;14.20;;
66189;SDS011;52992;52.084;5.412;2023-11-22T09:04:49;30.10;;;14.70;;
66189;SDS011;52992;52.084;5.412;2023-11-22T09:07:16;28.90;;;13.90;;
66189;SDS011;52992;52.084;5.412;2023-11-22T09:09:43;25.80;;;13.37;;
66189;SDS011;52992;52.084;5.412;2023-11-22T09:12:10;27.73;;;13.40;;
66189;SDS011;52992;52.084;5.412;2023-11-22T09:14:41;26.83;;;14.00;;
66189;SDS011;52992;52.084;5.412;2023-11-22T09:17:09;26.93;;;13.77;;
66189;SDS011;52992;52.084;5.412;2023-11-22T09:19:36;28.00;;;14.47;;
66189;SDS011;52992;52.084;5.412;2023-11-22T09:22:04;31.13;;;14.17;;
66189;SDS011;52992;52.084;5.412;2023-11-22T09:24:34;27.73;;;14.17;;
66189;SDS011;52992;52.084;5.412;2023-11-22T09:27:03;30.10;;;13.87;;
66189;SDS011;52992;52.084;5.412;2023-11-22T09:29:32;27.97;;;13.03;;
66189;SDS011;52992;52.084;5.412;2023-11-22T09:31:59;26.97;;;12.97;;
66189;SDS011;52992;52.084;5.412;2023-11-22T09:34:27;28.50;;;13.23;;
66189;SDS011;52992;52.084;5.412;2023-11-22T09:36:55;25.43;;;13.73;;
66189;SDS011;52992;52.084;5.412;2023-11-22T09:39:23;25.53;;;13.23;;
66189;SDS011;52992;52.084;5.412;2023-11-22T09:41:51;26.10;;;13.43;;
66189;SDS011;52992;52.084;5.412;2023-11-22T09:44:18;26.10;;;13.80;;
66189;SDS011;52992;52.084;5.412;2023-11-22T09:46:47;30.57;;;13.70;;
66189;SDS011;52992;52.084;5.412;2023-11-22T09:49:16;30.17;;;13.43;;
66189;SDS011;52992;52.084;5.412;2023-11-22T09:51:48;31.83;;;14.80;;
66189;SDS011;52992;52.084;5.412;2023-11-22T09:54:18;29.20;;;14.00;;
66189;SDS011;52992;52.084;5.412;2023-11-22T09:56:46;27.20;;;13.50;;
66189;SDS011;52992;52.084;5.412;2023-11-22T09:59:18;33.63;;;14.67;;
66189;SDS011;52992;52.084;5.412;2023-11-22T10:01:49;26.90;;;14.60;;
66189;SDS011;52992;52.084;5.412;2023-11-22T10:04:18;27.30;;;14.40;;
66189;SDS011;52992;52.084;5.412;2023-11-22T10:06:46;30.77;;;15.00;;
66189;SDS011;52992;52.084;5.412;2023-11-22T10:09:13;27.03;;;14.07;;
66189;SDS011;52992;52.084;5.412;2023-11-22T10:11:40;31.20;;;14.20;;
66189;SDS011;52992;52.084;5.412;2023-11-22T10:14:10;26.53;;;14.43;;
66189;SDS011;52992;52.084;5.412;2023-11-22T10:16:37;30.27;;;13.67;;
66189;SDS011;52992;52.084;5.412;2023-11-22T10:19:04;29.60;;;14.57;;
66189;SDS011;52992;52.084;5.412;2023-11-22T10:21:34;29.27;;;13.40;;
66189;SDS011;52992;52.084;5.412;2023-11-22T10:24:01;28.03;;;14.20;;
66189;SDS011;52992;52.084;5.412;2023-11-22T10:26:30;26.37;;;14.40;;
66189;SDS011;52992;52.084;5.412;2023-11-22T10:28:58;25.60;;;13.63;;
66189;SDS011;52992;52.084;5.412;2023-11-22T10:31:25;27.73;;;14.47;;
66189;SDS011;52992;52.084;5.412;2023-11-22T10:33:52;29.47;;;14.63;;
66189;SDS011;52992;52.084;5.412;2023-11-22T10:36:21;29.07;;;14.57;;
66189;SDS011;52992;52.084;5.412;2023-11-22T10:38:49;28.90;;;14.63;;
66189;SDS011;52992;52.084;5.412;2023-11-22T10:41:20;29.67;;;13.57;;
66189;SDS011;52992;52.084;5.412;2023-11-22T10:43:49;30.53;;;14.77;;
66189;SDS011;52992;52.084;5.412;2023-11-22T10:46:20;29.20;;;15.03;;
66189;SDS011;52992;52.084;5.412;2023-11-22T10:48:53;27.93;;;13.17;;
66189;SDS011;52992;52.084;5.412;2023-11-22T10:51:19;31.73;;;14.53;;
66189;SDS011;52992;52.084;5.412;2023-11-22T10:53:49;29.30;;;14.23;;
66189;SDS011;52992;52.084;5.412;2023-11-22T10:56:19;29.87;;;14.47;;
66189;SDS011;52992;52.084;5.412;2023-11-22T10:58:49;27.63;;;14.33;;
66189;SDS011;52992;52.084;5.412;2023-11-22T11:01:17;30.77;;;14.30;;
66189;SDS011;52992;52.084;5.412;2023-11-22T11:03:47;30.37;;;14.23;;
66189;SDS011;52992;52.084;5.412;2023-11-22T11:06:37;30.30;;;14.83;;
66189;SDS011;52992;52.084;5.412;2023-11-22T11:09:05;28.50;;;14.03;;
66189;SDS011;52992;52.084;5.412;2023-11-22T11:11:35;28.80;;;15.20;;
66189;SDS011;52992;52.084;5.412;2023-11-22T11:14:05;24.23;;;13.27;;
66189;SDS011;52992;52.084;5.412;2023-11-22T11:16:35;28.07;;;14.67;;
66189;SDS011;52992;52.084;5.412;2023-11-22T11:19:04;28.53;;;13.87;;
66189;SDS011;52992;52.084;5.412;2023-11-22T11:21:34;29.53;;;14.50;;
66189;SDS011;52992;52.084;5.412;2023-11-22T11:24:01;27.60;;;14.40;;
66189;SDS011;52992;52.084;5.412;2023-11-22T11:26:32;30.77;;;15.47;;
66189;SDS011;52992;52.084;5.412;2023-11-22T11:29:01;28.57;;;14.57;;
66189;SDS011;52992;52.084;5.412;2023-11-22T11:31:33;26.77;;;13.83;;
66189;SDS011;52992;52.084;5.412;2023-11-22T11:34:06;30.10;;;15.03;;
66189;SDS011;52992;52.084;5.412;2023-11-22T11:36:36;26.13;;;14.73;;
66189;SDS011;52992;52.084;5.412;2023-11-22T11:39:07;29.53;;;15.23;;
66189;SDS011;52992;52.084;5.412;2023-11-22T11:41:42;24.70;;;14.00;;
66189;SDS011;52992;52.084;5.412;2023-11-22T11:44:09;28.03;;;16.03;;
66189;SDS011;52992;52.084;5.412;2023-11-22T11:46:38;24.53;;;14.20;;
66189;SDS011;52992;52.084;5.412;2023-11-22T11:49:07;26.47;;;14.53;;
66189;SDS011;52992;52.084;5.412;2023-11-22T11:51:35;25.97;;;13.67;;
66189;SDS011;52992;52.084;5.412;2023-11-22T11:54:04;24.47;;;14.07;;
66189;SDS011;52992;52.084;5.412;2023-11-22T11:56:33;28.53;;;14.10;;
66189;SDS011;52992;52.084;5.412;2023-11-22T11:59:00;24.30;;;13.37;;
66189;SDS011;52992;52.084;5.412;2023-11-22T12:01:29;23.10;;;12.47;;
66189;SDS011;52992;52.084;5.412;2023-11-22T12:03:57;24.10;;;12.70;;
66189;SDS011;52992;52.084;5.412;2023-11-22T12:06:24;24.57;;;12.93;;
66189;SDS011;52992;52.084;5.412;2023-11-22T12:08:51;24.37;;;13.50;;
66189;SDS011;52992;52.084;5.412;2023-11-22T12:11:18;23.13;;;12.60;;
66189;SDS011;52992;52.084;5.412;2023-11-22T12:13:45;25.73;;;13.20;;
66189;SDS011;52992;52.084;5.412;2023-11-22T12:16:15;24.23;;;13.50;;
66189;SDS011;52992;52.084;5.412;2023-11-22T12:18:45;24.10;;;13.27;;
66189;SDS011;52992;52.084;5.412;2023-11-22T12:21:17;26.10;;;13.20;;
66189;SDS011;52992;52.084;5.412;2023-11-22T12:23:45;25.97;;;14.77;;
66189;SDS011;52992;52.084;5.412;2023-11-22T12:26:16;23.80;;;13.50;;
66189;SDS011;52992;52.084;5.412;2023-11-22T12:28:47;23.27;;;12.53;;
66189;SDS011;52992;52.084;5.412;2023-11-22T12:31:29;29.60;;;14.73;;
66189;SDS011;52992;52.084;5.412;2023-11-22T12:34:01;29.47;;;15.63;;
66189;SDS011;52992;52.084;5.412;2023-11-22T12:36:28;33.27;;;16.60;;
66189;SDS011;52992;52.084;5.412;2023-11-22T12:38:56;31.83;;;17.00;;
66189;SDS011;52992;52.084;5.412;2023-11-22T12:41:26;33.43;;;18.23;;
66189;SDS011;52992;52.084;5.412;2023-11-22T12:44:05;33.33;;;17.93;;
66189;SDS011;52992;52.084;5.412;2023-11-22T12:49:16;33.07;;;17.00;;
66189;SDS011;52992;52.084;5.412;2023-11-22T12:51:46;32.93;;;17.30;;
66189;SDS011;52992;52.084;5.412;2023-11-22T12:54:16;31.47;;;16.87;;
66189;SDS011;52992;52.084;5.412;2023-11-22T12:56:49;34.57;;;18.10;;
66189;SDS011;52992;52.084;5.412;2023-11-22T12:59:20;32.20;;;16.90;;
66189;SDS011;52992;52.084;5.412;2023-11-22T13:01:47;32.97;;;16.60;;
66189;SDS011;52992;52.084;5.412;2023-11-22T13:04:14;33.13;;;17.10;;
66189;SDS011;52992;52.084;5.412;2023-11-22T13:06:42;32.20;;;17.23;;
66189;SDS011;52992;52.084;5.412;2023-11-22T13:09:09;32.53;;;16.23;;
66189;SDS011;52992;52.084;5.412;2023-11-22T13:11:41;30.97;;;15.07;;
66189;SDS011;52992;52.084;5.412;2023-11-22T13:14:09;29.73;;;15.10;;
66189;SDS011;52992;52.084;5.412;2023-11-22T13:16:40;30.70;;;16.03;;
66189;SDS011;52992;52.084;5.412;2023-11-22T13:19:08;30.20;;;15.57;;
66189;SDS011;52992;52.084;5.412;2023-11-22T13:21:35;31.63;;;15.37;;
66189;SDS011;52992;52.084;5.412;2023-11-22T13:24:03;29.23;;;14.57;;
66189;SDS011;52992;52.084;5.412;2023-11-22T13:26:33;29.07;;;14.40;;
66189;SDS011;52992;52.084;5.412;2023-11-22T13:29:01;31.10;;;14.70;;
66189;SDS011;52992;52.084;5.412;2023-11-22T13:31:28;27.07;;;14.13;;
66189;SDS011;52992;52.084;5.412;2023-11-22T13:33:55;28.37;;;14.50;;
66189;SDS011;52992;52.084;5.412;2023-11-22T13:36:22;26.47;;;14.70;;
66189;SDS011;52992;52.084;5.412;2023-11-22T13:38:52;28.87;;;14.43;;
66189;SDS011;52992;52.084;5.412;2023-11-22T13:41:21;28.37;;;15.43;;
66189;SDS011;52992;52.084;5.412;2023-11-22T13:43:50;27.40;;;15.77;;
66189;SDS011;52992;52.084;5.412;2023-11-22T13:46:17;32.70;;;16.50;;
66189;SDS011;52992;52.084;5.412;2023-11-22T13:48:44;30.67;;;16.33;;
66189;SDS011;52992;52.084;5.412;2023-11-22T13:51:11;27.10;;;15.40;;
66189;SDS011;52992;52.084;5.412;2023-11-22T13:53:38;29.93;;;16.17;;
66189;SDS011;52992;52.084;5.412;2023-11-22T13:56:10;27.87;;;15.47;;
66189;SDS011;52992;52.084;5.412;2023-11-22T13:58:39;35.97;;;18.40;;
66189;SDS011;52992;52.084;5.412;2023-11-22T14:01:06;29.33;;;16.03;;
66189;SDS011;52992;52.084;5.412;2023-11-22T14:03:38;29.87;;;16.53;;
66189;SDS011;52992;52.084;5.412;2023-11-22T14:06:06;36.03;;;17.40;;
66189;SDS011;52992;52.084;5.412;2023-11-22T14:08:33;30.43;;;17.17;;
66189;SDS011;52992;52.084;5.412;2023-11-22T14:11:00;34.97;;;17.87;;
66189;SDS011;52992;52.084;5.412;2023-11-22T14:13:27;28.77;;;16.43;;
66189;SDS011;52992;52.084;5.412;2023-11-22T14:15:54;30.50;;;16.93;;
66189;SDS011;52992;52.084;5.412;2023-11-22T14:18:21;31.73;;;16.93;;
66189;SDS011;52992;52.084;5.412;2023-11-22T14:20:48;33.67;;;17.43;;
66189;SDS011;52992;52.084;5.412;2023-11-22T14:23:15;35.77;;;18.27;;
66189;SDS011;52992;52.084;5.412;2023-11-22T14:25:43;33.50;;;17.40;;
66189;SDS011;52992;52.084;5.412;2023-11-22T14:28:10;34.60;;;17.23;;
66189;SDS011;52992;52.084;5.412;2023-11-22T14:30:37;36.23;;;18.57;;
66189;SDS011;52992;52.084;5.412;2023-11-22T14:33:04;37.17;;;18.93;;
66189;SDS011;52992;52.084;5.412;2023-11-22T14:35:34;38.60;;;19.03;;